Weather forecast for El Rey

Venezuela, 310 m
N7.468, E-63.220


Sounding

Red line — air temperature ˚C.
Blue line — thermal bubble temperature ˚C.
Green line — dew point temperature ˚C.
Wind speed is in meters per second.

Table forecast

GFS 0.25˚ model

temp. wind gust humid. clouds prec. press. hpbl
Wed18 00:00 25 57.0 ene 1 2 74 55 0.6 1010 24
03:00 24 99.0 e 2 2 79 78 0.8 1009 50
06:00 23 131.0 se 2 3 89 100 0.0 1009 106
09:00 25 145.0 se 1 3 84 100 0.3 1011 384
12:00 28 203.0 ssw 2 2 80 100 11.1 1010 379
15:00 27 245.0 wsw 2 3 84 100 21.5 1007 221
18:00 25 258.0 wsw 1 2 89 100 0.5 1006 41
21:00 24 169.0 s 0 1 87 100 0.6 1008 24
 
Thu19 00:00 24 225.0 sw 0 1 88 100 0.3 1009 25
03:00 23 25.0 nne 2 4 96 100 5.1 1009 158
06:00 23 99.0 e 4 8 97 100 4.3 1009 396
09:00 23 130.0 se 3 6 95 100 7.2 1011 248
12:00 24 154.0 sse 3 5 86 100 0.1 1011 294
15:00 28 206.0 ssw 1 1 67 100 0.1 1007 344
18:00 28 328.0 nnw 1 1 72 100 0.0 1006 186
21:00 25 46.0 ne 1 1 80 100 0.0 1008 24
 
Fri20 00:00 24 49.0 ne 2 2 82 100 0.0 1010 37
03:00 23 67.0 ene 2 3 92 100 1.7 1009 67
06:00 23 84.0 e 2 6 95 100 2.7 1010 200
09:00 25 99.0 e 3 7 88 100 2.9 1013 602
12:00 29 99.0 e 4 7 76 33 2.9 1012 639
15:00 30 79.0 e 2 4 67 20 6.5 1009 1040
18:00 30 65.0 ene 2 5 71 2 0.1 1008 880
21:00 26 21.0 nne 2 3 76 18 0.1 1010 59
 
Sat21 00:00 23 33.0 nne 2 3 96 99 3.9 1012 139
03:00 23 68.0 ene 1 2 95 99 4.4 1011 43
06:00 23 88.0 e 2 5 97 55 0.2 1012 226
09:00 25 103.0 ese 4 9 86 40 0.3 1013 616
12:00 30 87.0 e 4 7 64 0 0.0 1013 1120
15:00 31 72.0 ene 3 4 53 5 0.0 1010 1407
18:00 27 83.0 e 3 6 77 43 3.4 1008 218
21:00 24 73.0 ene 2 8 90 71 6.9 1010 344
 
Sun22 00:00 23 75.0 ene 2 4 96 100 3.9 1012 192
03:00 23 153.0 sse 2 2 93 100 4.3 1011 81
06:00 22 151.0 sse 1 2 93 100 0.0 1011 37
09:00 24 144.0 se 1 2 86 100 0.1 1013 231
12:00 31 301.0 wnw 1 1 63 100 0.0 1011 927
15:00 30 272.0 w 1 1 63 100 0.0 1009 1121
18:00 28 180.0 s 1 2 78 100 0.5 1008 140
21:00 25 146.0 se 1 2 85 100 3.2 1009 24
 

0.014 s